createdAt,value
2022-07-26T00:00:13.013Z,11.35
2022-07-26T00:02:47.917Z,12.35
2022-07-26T00:05:16.485Z,11.20
2022-07-26T00:07:43.692Z,14.40
2022-07-26T00:10:10.735Z,10.90
2022-07-26T00:12:37.652Z,12.68
2022-07-26T00:15:06.955Z,15.30
2022-07-26T00:17:33.742Z,10.10
2022-07-26T00:20:00.677Z,10.27
2022-07-26T00:22:36.498Z,24.42
2022-07-26T00:25:08.030Z,18.75
2022-07-26T00:27:38.745Z,25.88
2022-07-26T00:30:07.968Z,22.15
2022-07-26T00:32:34.724Z,14.90
2022-07-26T00:35:01.513Z,21.25
2022-07-26T00:37:29.404Z,19.73
2022-07-26T00:39:56.520Z,25.60
2022-07-26T00:42:23.358Z,15.90
2022-07-26T00:44:50.224Z,17.48
2022-07-26T00:47:17.355Z,15.85
2022-07-26T00:49:44.933Z,15.40
2022-07-26T00:52:12.589Z,18.30
2022-07-26T00:54:43.706Z,20.23
2022-07-26T00:57:10.490Z,17.90
2022-07-26T00:59:37.706Z,16.58
2022-07-26T01:02:06.456Z,14.10
2022-07-26T01:04:33.454Z,18.75
2022-07-26T01:07:01.183Z,19.10
2022-07-26T01:09:28.298Z,18.38
2022-07-26T01:11:54.996Z,19.45
2022-07-26T01:14:24.263Z,17.25
2022-07-26T01:16:51.463Z,14.80
2022-07-26T01:19:19.088Z,21.50
2022-07-26T01:21:46.214Z,19.58
2022-07-26T01:24:12.992Z,20.88
2022-07-26T01:29:06.688Z,22.90
2022-07-26T01:31:33.757Z,15.43
2022-07-26T01:34:00.716Z,19.00
2022-07-26T01:36:27.490Z,16.35
2022-07-26T01:38:54.269Z,15.45
2022-07-26T01:41:31.628Z,18.42
2022-07-26T01:44:05.063Z,18.05
2022-07-26T01:46:32.049Z,21.13
2022-07-26T01:51:25.656Z,16.45
2022-07-26T01:56:19.021Z,16.80
2022-07-26T02:01:12.634Z,15.80
2022-07-26T02:03:39.418Z,13.25
2022-07-26T02:08:33.786Z,13.30
2022-07-26T02:13:42.352Z,12.13
2022-07-26T02:16:11.909Z,13.52
2022-07-26T02:18:40.364Z,15.48
2022-07-26T02:21:07.943Z,9.63
2022-07-26T02:23:35.747Z,15.23
2022-07-26T02:26:08.079Z,10.02
2022-07-26T02:28:34.773Z,9.65
2022-07-26T02:33:28.294Z,10.40
2022-07-26T02:38:21.603Z,9.82
2022-07-26T02:40:50.452Z,13.20
2022-07-26T02:43:17.400Z,12.88
2022-07-26T02:45:44.114Z,13.18
2022-07-26T02:48:27.809Z,11.88
2022-07-26T02:50:54.925Z,16.75
2022-07-26T02:55:48.208Z,16.38
2022-07-26T03:00:41.706Z,18.15
2022-07-26T03:05:35.455Z,13.48
2022-07-26T03:10:28.949Z,11.80
2022-07-26T03:12:56.964Z,8.65
2022-07-26T03:17:50.626Z,17.20
2022-07-26T03:20:17.647Z,14.20
2022-07-26T03:22:44.394Z,14.50
2022-07-26T03:27:37.869Z,14.73
2022-07-26T03:30:05.972Z,15.18
2022-07-26T03:32:33.051Z,14.85
2022-07-26T03:34:59.734Z,9.77
2022-07-26T03:40:13.329Z,12.20
2022-07-26T03:42:40.058Z,9.85
2022-07-26T03:47:33.859Z,11.10
2022-07-26T03:52:27.401Z,10.85
2022-07-26T03:54:54.247Z,11.73
2022-07-26T03:57:21.070Z,11.43
2022-07-26T04:02:14.731Z,14.50
2022-07-26T04:04:41.578Z,11.88
2022-07-26T04:07:09.400Z,12.52
2022-07-26T04:09:36.157Z,8.38
2022-07-26T04:14:29.489Z,7.53
2022-07-26T04:19:22.987Z,15.95
2022-07-26T04:24:16.454Z,6.32
2022-07-26T04:29:11.617Z,9.30
2022-07-26T04:31:38.725Z,9.13
2022-07-26T04:34:05.815Z,8.07
2022-07-26T04:36:32.922Z,7.97
2022-07-26T04:38:59.728Z,7.90
2022-07-26T04:43:53.174Z,9.52
2022-07-26T04:48:46.676Z,9.40
2022-07-26T04:51:13.551Z,8.65
2022-07-26T04:56:07.338Z,6.20
2022-07-26T04:58:34.062Z,7.63
2022-07-26T05:03:43.076Z,7.25
2022-07-26T05:08:36.486Z,6.18
2022-07-26T05:13:31.149Z,5.65
2022-07-26T05:15:59.538Z,6.68
2022-07-26T05:18:26.619Z,9.95
2022-07-26T05:20:53.591Z,6.00
2022-07-26T05:23:20.550Z,5.63
2022-07-26T05:25:47.811Z,7.25
2022-07-26T05:28:29.732Z,4.35
2022-07-26T05:30:56.600Z,4.65
2022-07-26T05:33:23.409Z,4.47
2022-07-26T05:38:16.919Z,10.98
2022-07-26T05:40:47.283Z,4.40
2022-07-26T05:43:17.356Z,10.20
2022-07-26T05:45:44.210Z,6.72
2022-07-26T05:48:10.966Z,8.80
2022-07-26T05:50:37.737Z,7.18
2022-07-26T05:53:04.471Z,5.50
2022-07-26T05:57:58.067Z,7.60
2022-07-26T06:02:51.658Z,7.82
2022-07-26T06:05:18.549Z,10.77
2022-07-26T06:07:45.284Z,8.65
2022-07-26T06:10:12.188Z,9.88
2022-07-26T06:12:39.168Z,14.65
2022-07-26T06:15:15.870Z,6.63
2022-07-26T06:17:43.339Z,7.90
2022-07-26T06:20:10.795Z,10.63
2022-07-26T06:22:37.553Z,12.23
2022-07-26T06:27:32.850Z,6.85
2022-07-26T06:29:59.586Z,7.60
2022-07-26T06:32:26.331Z,7.13
2022-07-26T06:37:19.870Z,7.05
2022-07-26T06:39:46.568Z,8.07
2022-07-26T06:44:40.055Z,6.75
2022-07-26T06:47:06.746Z,5.18
2022-07-26T06:49:33.972Z,9.57
2022-07-26T06:52:00.807Z,5.18
2022-07-26T06:54:27.637Z,6.13
2022-07-26T06:56:54.409Z,3.60
2022-07-26T06:59:21.250Z,5.97
2022-07-26T07:01:58.273Z,6.20
2022-07-26T07:04:27.377Z,11.85
2022-07-26T07:06:54.311Z,5.82
2022-07-26T07:09:22.045Z,4.85
2022-07-26T07:11:53.709Z,5.07
2022-07-26T07:14:23.076Z,7.05
2022-07-26T07:16:50.169Z,8.43
2022-07-26T07:19:16.971Z,6.78
2022-07-26T07:21:43.667Z,9.07
2022-07-26T07:26:37.841Z,4.68
2022-07-26T07:29:04.698Z,5.18
2022-07-26T07:31:47.985Z,4.60
2022-07-26T07:34:17.982Z,5.70
2022-07-26T07:36:46.622Z,6.75
2022-07-26T07:39:17.332Z,7.13
2022-07-26T07:41:45.634Z,3.65
2022-07-26T07:44:12.551Z,2.70
2022-07-26T07:46:39.470Z,5.63
2022-07-26T07:49:07.242Z,3.55
2022-07-26T07:51:34.415Z,3.92
2022-07-26T07:54:05.957Z,6.35
2022-07-26T07:56:33.565Z,4.43
2022-07-26T07:59:00.561Z,2.83
2022-07-26T08:01:40.238Z,4.10
2022-07-26T08:04:09.451Z,4.80
2022-07-26T08:06:36.933Z,4.57
2022-07-26T08:09:06.572Z,4.97
2022-07-26T08:11:34.265Z,5.82
2022-07-26T08:14:01.921Z,4.75
2022-07-26T08:16:29.069Z,5.18
2022-07-26T08:18:57.869Z,6.15
2022-07-26T08:21:26.440Z,9.30
2022-07-26T08:24:13.755Z,7.60
2022-07-26T08:26:40.642Z,7.47
2022-07-26T08:29:07.508Z,3.13
2022-07-26T08:31:34.364Z,3.30
2022-07-26T08:34:01.142Z,4.40
2022-07-26T08:36:32.277Z,4.30
2022-07-26T08:39:00.856Z,4.13
2022-07-26T08:41:27.895Z,2.75
2022-07-26T08:43:55.515Z,3.33
2022-07-26T08:46:25.881Z,5.00
2022-07-26T08:48:57.580Z,2.92
2022-07-26T08:51:25.918Z,2.60
2022-07-26T08:54:01.913Z,5.82
2022-07-26T08:56:32.356Z,2.97
2022-07-26T08:58:59.193Z,2.42
2022-07-26T09:01:27.045Z,3.67
2022-07-26T09:03:53.845Z,3.20
2022-07-26T09:06:22.818Z,4.68
2022-07-26T09:09:11.445Z,4.10
2022-07-26T09:11:38.447Z,2.95
2022-07-26T09:14:06.603Z,4.90
2022-07-26T09:16:37.566Z,3.45
2022-07-26T09:19:17.852Z,4.93
2022-07-26T09:21:46.396Z,3.15
2022-07-26T09:24:29.011Z,4.22
2022-07-26T09:27:00.353Z,2.90
2022-07-26T09:29:28.549Z,5.25
2022-07-26T09:32:11.084Z,6.35
2022-07-26T09:34:48.037Z,6.35
2022-07-26T09:37:32.175Z,4.00
2022-07-26T09:40:01.944Z,7.30
2022-07-26T09:42:29.934Z,3.78
2022-07-26T09:44:58.319Z,3.45
2022-07-26T09:47:40.761Z,5.47
2022-07-26T09:50:12.585Z,5.53
2022-07-26T09:52:39.754Z,3.13
2022-07-26T09:55:08.272Z,2.63
2022-07-26T09:57:35.407Z,3.08
2022-07-26T10:00:07.752Z,3.92
2022-07-26T10:02:34.901Z,4.20
2022-07-26T10:05:01.790Z,3.88
2022-07-26T10:07:29.036Z,2.20
2022-07-26T10:10:04.468Z,1.80
2022-07-26T10:12:33.080Z,2.35
2022-07-26T10:15:00.155Z,2.67
2022-07-26T10:17:31.611Z,2.35
2022-07-26T10:20:03.892Z,6.35
2022-07-26T10:22:45.449Z,5.97
2022-07-26T10:25:18.326Z,2.25
2022-07-26T10:27:52.273Z,3.28
2022-07-26T10:30:22.621Z,6.18
2022-07-26T10:33:06.191Z,2.83
2022-07-26T10:35:44.945Z,3.10
2022-07-26T10:38:27.053Z,3.65
2022-07-26T10:40:59.746Z,2.55
2022-07-26T10:43:40.675Z,3.10
2022-07-26T10:46:17.893Z,3.28
2022-07-26T10:49:06.281Z,1.67
2022-07-26T10:51:35.812Z,2.58
2022-07-26T10:54:12.161Z,1.98
2022-07-26T10:56:40.221Z,2.75
2022-07-26T10:59:07.267Z,3.03
2022-07-26T11:01:38.094Z,3.47
2022-07-26T11:04:07.268Z,2.20
2022-07-26T11:06:34.179Z,2.55
2022-07-26T11:09:10.483Z,3.38
2022-07-26T11:11:37.231Z,2.03
2022-07-26T11:14:04.866Z,5.25
2022-07-26T11:16:38.031Z,3.33
2022-07-26T11:19:19.771Z,5.32
2022-07-26T11:21:53.357Z,5.18
2022-07-26T11:24:21.939Z,4.53
2022-07-26T11:26:48.793Z,3.65
2022-07-26T11:29:17.385Z,6.03
2022-07-26T11:31:50.400Z,5.38
2022-07-26T11:34:29.033Z,5.53
2022-07-26T11:36:58.247Z,9.40
2022-07-26T11:39:27.970Z,2.15
2022-07-26T11:41:59.728Z,2.30
2022-07-26T11:44:27.380Z,6.57
2022-07-26T11:46:54.683Z,3.33
2022-07-26T11:49:41.439Z,3.50
2022-07-26T11:52:12.049Z,5.70
2022-07-26T11:54:50.351Z,7.65
2022-07-26T11:57:18.422Z,5.47
2022-07-26T11:59:47.378Z,2.72
2022-07-26T12:02:14.971Z,2.70
2022-07-26T12:04:43.476Z,2.65
2022-07-26T12:07:17.167Z,5.90
2022-07-26T12:09:50.722Z,4.03
2022-07-26T12:12:20.682Z,2.83
2022-07-26T12:14:56.636Z,3.90
2022-07-26T12:17:23.725Z,2.20
2022-07-26T12:19:50.583Z,5.15
2022-07-26T12:22:19.982Z,4.22
2022-07-26T12:24:53.075Z,2.00
2022-07-26T12:27:25.550Z,4.05
2022-07-26T12:30:16.546Z,3.45
2022-07-26T12:32:46.047Z,4.22
2022-07-26T12:35:17.836Z,2.10
2022-07-26T12:37:47.789Z,3.92
2022-07-26T12:40:17.617Z,2.78
2022-07-26T12:42:50.470Z,6.25
2022-07-26T12:45:20.293Z,4.10
2022-07-26T12:47:49.826Z,3.92
2022-07-26T12:50:19.295Z,1.70
2022-07-26T12:52:46.942Z,3.58
2022-07-26T12:55:16.515Z,2.38
2022-07-26T12:57:47.193Z,2.70
2022-07-26T13:00:16.551Z,2.13
2022-07-26T13:02:44.178Z,4.68
2022-07-26T13:05:11.836Z,2.92
2022-07-26T13:07:39.249Z,5.00
2022-07-26T13:10:31.736Z,3.53
2022-07-26T13:12:54.819Z,6.30
2022-07-26T13:15:21.701Z,4.40
2022-07-26T13:17:48.515Z,3.28
2022-07-26T13:20:15.812Z,3.03
2022-07-26T13:22:44.116Z,3.03
2022-07-26T13:25:11.026Z,1.70
2022-07-26T13:27:41.413Z,6.68
2022-07-26T13:30:11.946Z,3.78
2022-07-26T13:32:38.725Z,4.38
2022-07-26T13:35:05.856Z,2.22
2022-07-26T13:37:32.524Z,2.90
2022-07-26T13:39:59.281Z,2.90
2022-07-26T13:42:26.002Z,3.75
2022-07-26T13:44:52.730Z,2.78
2022-07-26T13:47:19.486Z,3.67
2022-07-26T13:49:46.316Z,3.40
2022-07-26T13:52:16.542Z,3.47
2022-07-26T13:54:43.723Z,5.35
2022-07-26T13:57:10.482Z,3.00
2022-07-26T13:59:37.194Z,5.32
2022-07-26T14:02:05.047Z,3.80
2022-07-26T14:04:31.931Z,2.03
2022-07-26T14:06:58.983Z,2.72
2022-07-26T14:09:25.892Z,3.63
2022-07-26T14:11:52.874Z,4.32
2022-07-26T14:14:19.624Z,2.22
2022-07-26T14:16:49.292Z,3.90
2022-07-26T14:19:16.616Z,2.60
2022-07-26T14:21:58.716Z,4.43
2022-07-26T14:24:27.863Z,7.50
2022-07-26T14:26:58.855Z,4.05
2022-07-26T14:29:26.127Z,2.30
2022-07-26T14:31:53.187Z,2.15
2022-07-26T14:34:20.004Z,2.90
2022-07-26T14:36:46.791Z,30.08
2022-07-26T14:39:13.636Z,11.70
2022-07-26T14:41:40.509Z,5.47
2022-07-26T14:44:07.580Z,3.15
2022-07-26T14:46:34.696Z,6.60
2022-07-26T14:49:01.498Z,5.38
2022-07-26T14:51:28.579Z,5.28
2022-07-26T14:53:55.448Z,7.53
2022-07-26T14:56:22.297Z,5.90
2022-07-26T14:58:49.146Z,8.25
2022-07-26T15:01:16.532Z,3.50
2022-07-26T15:03:43.599Z,6.43
2022-07-26T15:06:10.330Z,8.10
2022-07-26T15:08:37.078Z,6.00
2022-07-26T15:11:05.444Z,3.72
2022-07-26T15:13:32.273Z,4.13
2022-07-26T15:15:59.285Z,7.28
2022-07-26T15:18:26.283Z,3.05
2022-07-26T15:20:53.559Z,3.10
2022-07-26T15:23:20.473Z,5.25
2022-07-26T15:25:48.570Z,5.43
2022-07-26T15:28:16.230Z,4.60
2022-07-26T15:30:43.397Z,4.60
2022-07-26T15:33:10.653Z,9.00
2022-07-26T15:35:38.860Z,11.43
2022-07-26T15:38:05.701Z,5.78
2022-07-26T15:40:32.676Z,3.65
2022-07-26T15:42:59.531Z,3.28
2022-07-26T15:45:27.901Z,4.70
2022-07-26T15:48:08.345Z,4.15
2022-07-26T15:50:42.377Z,2.63
2022-07-26T15:53:09.262Z,3.47
2022-07-26T15:55:36.118Z,25.70
2022-07-26T15:58:03.158Z,14.05
2022-07-26T16:00:29.911Z,6.07
2022-07-26T16:02:56.672Z,6.60
2022-07-26T16:05:23.526Z,8.20
2022-07-26T16:07:50.369Z,7.28
2022-07-26T16:10:17.275Z,3.88
2022-07-26T16:12:44.030Z,9.50
2022-07-26T16:15:11.811Z,4.55
2022-07-26T16:17:38.977Z,5.32
2022-07-26T16:20:06.534Z,3.88
2022-07-26T16:22:33.251Z,7.07
2022-07-26T16:25:00.168Z,2.42
2022-07-26T16:27:27.031Z,3.13
2022-07-26T16:29:53.821Z,4.18
2022-07-26T16:32:21.566Z,4.50
2022-07-26T16:34:48.890Z,3.15
2022-07-26T16:37:15.745Z,2.72
2022-07-26T16:39:42.676Z,3.03
2022-07-26T16:42:09.687Z,1.90
2022-07-26T16:44:36.568Z,5.00
2022-07-26T16:47:04.444Z,3.17
2022-07-26T16:49:31.406Z,7.90
2022-07-26T16:51:58.726Z,2.42
2022-07-26T16:54:25.959Z,3.08
2022-07-26T16:56:52.907Z,3.47
2022-07-26T16:59:19.656Z,5.72
2022-07-26T17:01:46.576Z,3.50
2022-07-26T17:04:13.431Z,5.45
2022-07-26T17:06:40.270Z,3.00
2022-07-26T17:09:07.196Z,5.35
2022-07-26T17:11:42.024Z,4.70
2022-07-26T17:14:08.781Z,4.45
2022-07-26T17:16:35.880Z,3.28
2022-07-26T17:19:03.297Z,2.90
2022-07-26T17:21:30.115Z,3.17
2022-07-26T17:23:56.932Z,2.50
2022-07-26T17:26:24.287Z,3.08
2022-07-26T17:28:51.230Z,5.22
2022-07-26T17:31:18.081Z,5.35
2022-07-26T17:33:45.023Z,5.55
2022-07-26T17:36:23.419Z,4.95
2022-07-26T17:38:50.672Z,2.20
2022-07-26T17:41:18.530Z,4.43
2022-07-26T17:43:47.714Z,2.60
2022-07-26T17:46:14.963Z,3.85
2022-07-26T17:48:43.954Z,5.20
2022-07-26T17:51:10.867Z,4.82
2022-07-26T17:53:37.650Z,3.67
2022-07-26T17:56:04.754Z,8.10
2022-07-26T17:58:31.533Z,2.13
2022-07-26T18:00:58.484Z,2.92
2022-07-26T18:03:25.291Z,3.95
2022-07-26T18:05:52.268Z,3.50
2022-07-26T18:08:19.151Z,10.30
2022-07-26T18:10:50.693Z,4.60
2022-07-26T18:13:18.020Z,2.85
2022-07-26T18:15:45.554Z,5.75
2022-07-26T18:18:12.294Z,5.10
2022-07-26T18:20:39.348Z,6.95
2022-07-26T18:23:06.287Z,5.45
2022-07-26T18:25:33.160Z,4.40
2022-07-26T18:28:06.377Z,7.43
2022-07-26T18:30:34.077Z,7.15
2022-07-26T18:33:01.335Z,3.08
2022-07-26T18:35:28.486Z,3.15
2022-07-26T18:37:55.405Z,3.47
2022-07-26T18:40:26.410Z,7.57
2022-07-26T18:42:53.309Z,2.45
2022-07-26T18:45:20.211Z,5.53
2022-07-26T18:47:46.971Z,7.05
2022-07-26T18:50:16.912Z,6.75
2022-07-26T18:52:44.680Z,5.57
2022-07-26T18:55:12.931Z,2.90
2022-07-26T18:57:42.444Z,5.22
2022-07-26T19:00:15.058Z,9.07
2022-07-26T19:02:43.070Z,3.30
2022-07-26T19:05:10.514Z,7.70
2022-07-26T19:07:38.194Z,8.20
2022-07-26T19:10:07.135Z,7.03
2022-07-26T19:12:34.098Z,7.53
2022-07-26T19:15:01.308Z,3.33
2022-07-26T19:17:30.356Z,5.95
2022-07-26T19:20:00.071Z,4.10
2022-07-26T19:22:26.875Z,5.10
2022-07-26T19:24:53.684Z,5.53
2022-07-26T19:27:20.625Z,5.40
2022-07-26T19:29:48.579Z,7.90
2022-07-26T19:32:15.434Z,4.25
2022-07-26T19:34:42.384Z,4.25
2022-07-26T19:37:09.282Z,7.20
2022-07-26T19:39:36.259Z,6.72
2022-07-26T19:42:03.283Z,12.85
2022-07-26T19:44:30.134Z,5.63
2022-07-26T19:46:57.946Z,4.95
2022-07-26T19:49:25.323Z,5.72
2022-07-26T19:51:52.125Z,7.10
2022-07-26T19:54:18.851Z,5.38
2022-07-26T19:56:45.546Z,7.03
2022-07-26T19:59:12.859Z,5.38
2022-07-26T20:01:40.480Z,6.40
2022-07-26T20:04:07.434Z,9.07
2022-07-26T20:06:34.279Z,6.50
2022-07-26T20:09:01.197Z,8.05
2022-07-26T20:11:28.224Z,7.60
2022-07-26T20:13:57.693Z,3.83
2022-07-26T20:16:24.485Z,4.28
2022-07-26T20:18:51.219Z,3.40
2022-07-26T20:21:18.176Z,7.45
2022-07-26T20:23:44.997Z,3.72
2022-07-26T20:26:13.243Z,4.53
2022-07-26T20:28:41.167Z,12.77
2022-07-26T20:31:08.172Z,3.95
2022-07-26T20:33:35.017Z,6.57
2022-07-26T20:36:01.819Z,8.30
2022-07-26T20:38:28.524Z,4.53
2022-07-26T20:40:55.354Z,6.63
2022-07-26T20:43:23.446Z,6.03
2022-07-26T20:45:52.398Z,4.32
2022-07-26T20:48:19.280Z,4.43
2022-07-26T20:50:46.199Z,9.13
2022-07-26T20:53:12.962Z,7.03
2022-07-26T20:55:39.709Z,6.68
2022-07-26T20:58:06.454Z,4.28
2022-07-26T21:00:33.548Z,4.25
2022-07-26T21:03:00.442Z,5.32
2022-07-26T21:05:32.166Z,5.70
2022-07-26T21:07:59.986Z,4.53
2022-07-26T21:10:29.085Z,5.47
2022-07-26T21:12:57.437Z,4.65
2022-07-26T21:15:24.291Z,3.45
2022-07-26T21:17:52.389Z,3.88
2022-07-26T21:20:19.519Z,3.42
2022-07-26T21:22:46.354Z,4.13
2022-07-26T21:25:13.258Z,4.80
2022-07-26T21:27:40.278Z,5.53
2022-07-26T21:30:08.158Z,8.05
2022-07-26T21:32:34.998Z,8.30
2022-07-26T21:35:01.915Z,3.97
2022-07-26T21:37:28.711Z,5.75
2022-07-26T21:39:55.433Z,4.88
2022-07-26T21:42:26.910Z,3.58
2022-07-26T21:44:53.693Z,3.05
2022-07-26T21:47:20.465Z,3.97
2022-07-26T21:49:47.184Z,4.90
2022-07-26T21:54:40.530Z,1.42
2022-07-26T21:59:34.362Z,11.03
2022-07-26T22:02:01.182Z,4.95
2022-07-26T22:04:28.036Z,3.63
2022-07-26T22:06:54.835Z,3.42
2022-07-26T22:09:21.602Z,2.60
2022-07-26T22:11:48.380Z,4.53
2022-07-26T22:14:15.156Z,1.95
2022-07-26T22:16:47.433Z,4.43
2022-07-26T22:19:14.770Z,3.03
2022-07-26T22:21:41.465Z,1.73
2022-07-26T22:24:08.272Z,2.35
2022-07-26T22:26:36.081Z,4.10
2022-07-26T22:29:02.896Z,2.92
2022-07-26T22:31:29.794Z,1.55
2022-07-26T22:33:56.552Z,2.08
2022-07-26T22:38:50.016Z,3.63
2022-07-26T22:41:16.923Z,1.25
2022-07-26T22:43:43.781Z,2.35
2022-07-26T22:46:10.579Z,2.05
2022-07-26T22:48:38.968Z,2.40
2022-07-26T22:51:06.727Z,4.68
2022-07-26T22:53:33.480Z,4.88
2022-07-26T22:58:26.944Z,2.05
2022-07-26T23:00:54.164Z,2.40
2022-07-26T23:03:21.786Z,3.42
2022-07-26T23:05:50.374Z,4.30
2022-07-26T23:08:45.084Z,3.17
2022-07-26T23:11:06.571Z,5.82
2022-07-26T23:13:33.812Z,3.40
2022-07-26T23:16:01.637Z,4.40
2022-07-26T23:18:30.356Z,8.02
2022-07-26T23:20:57.176Z,4.18
2022-07-26T23:23:27.785Z,5.68
2022-07-26T23:25:57.302Z,7.53
2022-07-26T23:28:36.172Z,1.83
2022-07-26T23:31:06.408Z,4.68
2022-07-26T23:33:52.775Z,2.65
2022-07-26T23:36:20.174Z,7.63
2022-07-26T23:38:46.900Z,2.17
2022-07-26T23:41:13.574Z,7.32
2022-07-26T23:46:06.955Z,7.78
2022-07-26T23:51:00.377Z,8.10
2022-07-26T23:55:54.402Z,11.47
2022-07-26T23:58:21.389Z,5.20
